Time;durP1;ratioP1;P1;durP2;ratioP2;P2;SDS_P1;SDS_P2;PMS_P1;PMS_P2;Temp;Humidity;BMP_temperature;BMP_pressure;BME280_temperature;BME280_humidity;BME280_pressure;Samples;Min_cycle;Max_cycle;Signal;HPM_P1;HPM_P2
2021/11/16 00:00:06;;;;;;;62.50;40.80;;;;;;;;;;4987182;28;19947;-71
2021/11/16 00:02:31;;;;;;;56.20;36.90;;;;;;;;;;4985955;28;20896;-71
2021/11/16 00:04:56;;;;;;;;;;;;;;;;;;4989606;28;20456;-72
2021/11/16 00:07:23;;;;;;;61.15;38.80;;;;;;;;;;4986458;28;20004;-72
2021/11/16 00:09:48;;;;;;;63.40;38.80;;;;;;;;;;4987476;28;20226;-71
2021/11/16 00:12:13;;;;;;;;;;;;;;;;;;4993670;28;20311;-72
2021/11/16 00:14:39;;;;;;;;;;;;;;;;;;4996204;28;19948;-71
2021/11/16 00:17:04;;;;;;;;;;;;;;;;;;4992886;28;20394;-71
2021/11/16 00:19:29;;;;;;;;;;;;;;;;;;4991128;28;19948;-71
2021/11/16 00:21:56;;;;;;;;;;;;;;;;;;4986721;28;20070;-71
2021/11/16 00:24:25;;;;;;;;;;;;;;;;;;4988307;28;19945;-71
2021/11/16 00:26:50;;;;;;;;;;;;;;;;;;4989858;28;19973;-71
2021/11/16 00:29:16;;;;;;;;;;;;;;;;;;4989479;28;19937;-72
2021/11/16 00:31:41;;;;;;;;;;;;;;;;;;4991404;28;19933;-72
2021/11/16 00:34:06;;;;;;;;;;;;;;;;;;4991350;28;19969;-72
2021/11/16 00:36:32;;;;;;;64.15;39.28;;;;;;;;;;4990763;28;20339;-72
2021/11/16 00:38:57;;;;;;;68.00;40.30;;;;;;;;;;4991071;28;25052;-71
2021/11/16 00:41:23;;;;;;;65.20;42.60;;;;;;;;;;4987337;28;25076;-71
2021/11/16 00:43:48;;;;;;;68.77;43.23;;;;;;;;;;4982366;28;25113;-71
2021/11/16 00:46:14;;;;;;;65.90;40.00;;;;;;;;;;4986561;28;25117;-71
2021/11/16 00:48:40;;;;;;;66.20;38.83;;;;;;;;;;4986650;28;25084;-71
2021/11/16 00:51:06;;;;;;;63.50;39.07;;;;;;;;;;4991472;28;25079;-71
2021/11/16 00:53:32;;;;;;;65.70;37.57;;;;;;;;;;4995522;28;25127;-71
2021/11/16 00:55:58;;;;;;;60.13;38.37;;;;;;;;;;4990512;28;25054;-71
2021/11/16 00:58:24;;;;;;;59.93;37.70;;;;;;;;;;4992006;28;25115;-72
2021/11/16 01:00:49;;;;;;;63.43;39.07;;;;;;;;;;4989010;28;25107;-71
2021/11/16 01:03:15;;;;;;;65.37;37.80;;;;;;;;;;4991029;28;25119;-71
2021/11/16 01:05:41;;;;;;;58.60;37.70;;;;;;;;;;4981155;28;20199;-71
2021/11/16 01:08:07;;;;;;;65.87;40.43;;;;;;;;;;4975971;28;25113;-71
2021/11/16 01:10:33;;;;;;;68.10;40.60;;;;;;;;;;4987618;28;20195;-72
2021/11/16 01:12:58;;;;;;;67.23;39.87;;;;;;;;;;4989344;28;25150;-71
2021/11/16 01:15:24;;;;;;;64.80;40.00;;;;;;;;;;4988979;28;25144;-71
2021/11/16 01:17:49;;;;;;;64.20;39.13;;;;;;;;;;4990279;28;25070;-71
2021/11/16 01:20:15;;;;;;;62.43;38.00;;;;;;;;;;4985139;28;20195;-70
2021/11/16 01:22:41;;;;;;;67.83;42.37;;;;;;;;;;4985046;28;20193;-71
2021/11/16 01:25:08;;;;;;;58.30;38.47;;;;;;;;;;4985823;28;25170;-71
2021/11/16 01:27:35;;;;;;;66.03;41.30;;;;;;;;;;4986678;28;25092;-71
2021/11/16 01:30:01;;;;;;;70.37;42.13;;;;;;;;;;4987279;28;25104;-71
2021/11/16 01:34:55;;;;;;;64.77;38.73;;;;;;;;;;4994611;28;20570;-71
2021/11/16 01:37:21;;;;;;;69.20;42.10;;;;;;;;;;4991391;28;25154;-71
2021/11/16 01:39:47;;;;;;;73.37;44.23;;;;;;;;;;4986883;28;25152;-71
2021/11/16 01:42:12;;;;;;;70.93;42.77;;;;;;;;;;4988014;28;25101;-71
2021/11/16 01:44:38;;;;;;;66.67;41.20;;;;;;;;;;4983870;28;25063;-71
2021/11/16 01:47:03;;;;;;;69.83;42.77;;;;;;;;;;4985717;28;25078;-71
2021/11/16 01:49:29;;;;;;;74.23;46.70;;;;;;;;;;4988821;28;26806;-71
2021/11/16 01:51:54;;;;;;;69.30;45.07;;;;;;;;;;4994863;28;20184;-71
2021/11/16 01:54:19;;;;;;;72.50;45.73;;;;;;;;;;4994077;28;20208;-71
2021/11/16 01:56:45;;;;;;;67.80;44.23;;;;;;;;;;4992194;28;25052;-71
2021/11/16 01:59:11;;;;;;;73.20;44.60;;;;;;;;;;4988150;28;25066;-71
2021/11/16 02:01:37;;;;;;;71.27;44.13;;;;;;;;;;4987953;28;25171;-71
2021/11/16 02:04:04;;;;;;;75.27;44.37;;;;;;;;;;4988667;28;25116;-71
2021/11/16 02:06:29;;;;;;;;;;;;;;;;;;4985233;28;21036;-71
2021/11/16 02:08:54;;;;;;;;;;;;;;;;;;4996831;28;19990;-71
2021/11/16 02:11:19;;;;;;;;;;;;;;;;;;4988390;28;19988;-71
2021/11/16 02:13:45;;;;;;;;;;;;;;;;;;4991647;28;20000;-71
2021/11/16 02:16:10;;;;;;;;;;;;;;;;;;4989743;28;19985;-72
2021/11/16 02:18:35;;;;;;;;;;;;;;;;;;4988113;28;20055;-71
2021/11/16 02:21:01;;;;;;;65.17;38.70;;;;;;;;;;4988054;28;20248;-71
2021/11/16 02:23:26;;;;;;;;;;;;;;;;;;4990682;28;20260;-72
2021/11/16 02:25:51;;;;;;;65.03;39.73;;;;;;;;;;4988677;28;20190;-71
2021/11/16 02:28:17;;;;;;;60.30;37.60;;;;;;;;;;4986578;28;19985;-71
2021/11/16 02:46:22;;;;;;;55.27;32.63;;;;;;;;;;4990099;28;25090;-71
2021/11/16 02:48:47;;;;;;;67.30;35.77;;;;;;;;;;4986420;28;25087;-71
2021/11/16 02:51:13;;;;;;;59.50;35.77;;;;;;;;;;4983618;28;25133;-71
2021/11/16 02:53:38;;;;;;;61.60;34.90;;;;;;;;;;4994690;28;25059;-71
2021/11/16 02:56:07;;;;;;;61.70;35.90;;;;;;;;;;4992255;28;25072;-71
2021/11/16 02:58:32;;;;;;;61.73;36.20;;;;;;;;;;4987381;28;25094;-71
2021/11/16 03:01:03;;;;;;;61.63;36.23;;;;;;;;;;4989400;28;25177;-71
2021/11/16 03:03:28;;;;;;;65.90;35.10;;;;;;;;;;4989045;28;25065;-71
2021/11/16 03:05:54;;;;;;;63.10;34.20;;;;;;;;;;4984868;28;25169;-71
2021/11/16 03:08:22;;;;;;;67.70;35.53;;;;;;;;;;4980061;28;25135;-71
2021/11/16 03:10:50;;;;;;;66.10;35.73;;;;;;;;;;4986384;28;25068;-71
2021/11/16 03:13:15;;;;;;;63.73;34.33;;;;;;;;;;4987920;28;25114;-71
2021/11/16 03:15:41;;;;;;;64.80;35.00;;;;;;;;;;5004970;28;20489;-71
2021/11/16 03:18:06;;;;;;;56.53;32.23;;;;;;;;;;4987571;28;25145;-71
2021/11/16 03:20:31;;;;;;;63.80;35.60;;;;;;;;;;4986062;28;25133;-71
2021/11/16 03:23:07;;;;;;;62.00;35.83;;;;;;;;;;4992237;28;25102;-72
2021/11/16 03:25:35;;;;;;;65.37;34.87;;;;;;;;;;4981062;28;25068;-71
2021/11/16 03:28:05;;;;;;;60.03;34.77;;;;;;;;;;4986047;28;25078;-72
2021/11/16 03:30:30;;;;;;;61.43;33.40;;;;;;;;;;4991933;28;20432;-71
2021/11/16 03:32:56;;;;;;;57.20;32.13;;;;;;;;;;4993577;28;20498;-71
2021/11/16 03:35:22;;;;;;;63.03;34.17;;;;;;;;;;4995062;28;20177;-71
2021/11/16 03:37:50;;;;;;;61.20;34.40;;;;;;;;;;4992838;28;20452;-71
2021/11/16 03:40:16;;;;;;;69.10;34.23;;;;;;;;;;4985068;28;20614;-71
2021/11/16 03:42:43;;;;;;;54.27;32.13;;;;;;;;;;4991649;28;20444;-71
2021/11/16 03:45:10;;;;;;;61.03;35.30;;;;;;;;;;4989813;28;20608;-71
2021/11/16 03:47:35;;;;;;;61.20;33.20;;;;;;;;;;4987381;28;20965;-71
2021/11/16 03:50:00;;;;;;;56.27;32.00;;;;;;;;;;4987643;28;20443;-71
2021/11/16 03:52:26;;;;;;;61.83;32.40;;;;;;;;;;4995451;28;20181;-72
2021/11/16 03:54:52;;;;;;;68.03;33.43;;;;;;;;;;4992268;28;20292;-71
2021/11/16 03:57:18;;;;;;;55.93;31.80;;;;;;;;;;4992745;28;20296;-71
2021/11/16 03:59:44;;;;;;;60.00;33.73;;;;;;;;;;4988021;28;20247;-71
2021/11/16 04:02:09;;;;;;;52.23;29.37;;;;;;;;;;4986458;28;20442;-71
2021/11/16 04:04:34;;;;;;;50.93;30.77;;;;;;;;;;4987100;28;20442;-72
2021/11/16 04:07:00;;;;;;;55.20;31.60;;;;;;;;;;4985507;28;20182;-71
2021/11/16 04:09:26;;;;;;;53.83;29.80;;;;;;;;;;4992753;28;20196;-71
2021/11/16 04:11:51;;;;;;;49.33;29.90;;;;;;;;;;4992136;28;20200;-71
2021/11/16 04:14:18;;;;;;;50.20;29.40;;;;;;;;;;4994832;28;20367;-71
2021/11/16 04:16:43;;;;;;;50.83;29.43;;;;;;;;;;4992977;28;20268;-72
2021/11/16 04:19:08;;;;;;;50.97;29.20;;;;;;;;;;4990857;28;20495;-72
2021/11/16 04:21:34;;;;;;;50.90;30.50;;;;;;;;;;4992363;28;20268;-71
2021/11/16 04:23:59;;;;;;;50.40;29.80;;;;;;;;;;4992894;28;20197;-72
2021/11/16 04:26:25;;;;;;;49.53;29.30;;;;;;;;;;4994128;28;20184;-72
2021/11/16 04:28:51;;;;;;;50.20;29.40;;;;;;;;;;4993330;28;20208;-71
2021/11/16 04:31:16;;;;;;;50.73;29.23;;;;;;;;;;4987829;28;20429;-72
2021/11/16 04:33:43;;;;;;;54.13;29.73;;;;;;;;;;4986110;28;20307;-72
2021/11/16 04:36:08;;;;;;;50.60;28.17;;;;;;;;;;4987547;28;20199;-71
2021/11/16 04:38:34;;;;;;;52.40;29.27;;;;;;;;;;4990674;28;21100;-72
2021/11/16 04:41:01;;;;;;;45.63;26.67;;;;;;;;;;4995494;28;20181;-72
2021/11/16 04:43:28;;;;;;;48.33;28.50;;;;;;;;;;4999313;28;20660;-72
2021/11/16 04:46:02;;;;;;;54.47;30.30;;;;;;;;;;4990709;28;20535;-71
2021/11/16 04:48:46;;;;;;;50.23;30.57;;;;;;;;;;4993646;28;20557;-71
2021/11/16 05:04:33;;;;;;;48.17;27.40;;;;;;;;;;4995262;28;20866;-72
2021/11/16 05:06:58;;;;;;;44.70;26.80;;;;;;;;;;4993377;28;20531;-71
2021/11/16 05:09:23;;;;;;;42.50;26.00;;;;;;;;;;4991062;28;20606;-71
2021/11/16 05:11:49;;;;;;;45.50;26.50;;;;;;;;;;4988162;28;20987;-71
2021/11/16 05:14:14;;;;;;;48.03;28.03;;;;;;;;;;4985416;28;20202;-71
2021/11/16 05:16:39;;;;;;;49.10;26.73;;;;;;;;;;4990315;28;20193;-71
2021/11/16 05:19:05;;;;;;;43.87;26.07;;;;;;;;;;4987241;28;20700;-72
2021/11/16 05:21:31;;;;;;;51.30;29.00;;;;;;;;;;4987485;28;20847;-71
2021/11/16 05:23:58;;;;;;;53.07;28.83;;;;;;;;;;4989484;28;20268;-71
2021/11/16 05:26:24;;;;;;;49.10;26.60;;;;;;;;;;4991056;28;20186;-71
2021/11/16 05:28:50;;;;;;;52.10;28.67;;;;;;;;;;4986834;28;20468;-71
2021/11/16 05:31:16;;;;;;;50.30;28.80;;;;;;;;;;4986864;28;20487;-71
2021/11/16 05:33:42;;;;;;;47.33;27.10;;;;;;;;;;4983463;28;20215;-71
2021/11/16 05:36:07;;;;;;;47.23;26.27;;;;;;;;;;4981103;28;20499;-72
2021/11/16 05:38:35;;;;;;;48.33;26.77;;;;;;;;;;4984538;28;22036;-71
2021/11/16 05:41:01;;;;;;;46.73;25.53;;;;;;;;;;4992066;28;20213;-72
2021/11/16 05:43:27;;;;;;;39.73;25.07;;;;;;;;;;4994447;28;20478;-71
2021/11/16 05:45:53;;;;;;;41.73;25.70;;;;;;;;;;4986955;28;20186;-72
2021/11/16 05:48:21;;;;;;;43.50;25.60;;;;;;;;;;4988755;28;20540;-71
2021/11/16 05:50:46;;;;;;;48.00;26.67;;;;;;;;;;4988779;28;21074;-72
2021/11/16 05:53:14;;;;;;;43.93;25.67;;;;;;;;;;4987410;28;20440;-71
2021/11/16 05:55:40;;;;;;;43.57;26.47;;;;;;;;;;4988993;28;20732;-71
2021/11/16 05:58:05;;;;;;;49.07;26.60;;;;;;;;;;4984659;28;20535;-71
2021/11/16 06:00:31;;;;;;;43.40;26.23;;;;;;;;;;4987776;28;20180;-72
2021/11/16 06:02:56;;;;;;;43.43;25.70;;;;;;;;;;4991165;28;20185;-71
2021/11/16 06:05:21;;;;;;;46.07;25.20;;;;;;;;;;4996602;28;20280;-71
2021/11/16 06:07:46;;;;;;;45.53;25.60;;;;;;;;;;4991211;28;20209;-71
2021/11/16 06:10:12;;;;;;;43.00;26.30;;;;;;;;;;4990692;28;20185;-71
2021/11/16 06:12:37;;;;;;;44.20;24.80;;;;;;;;;;4990839;28;20251;-71
2021/11/16 06:15:04;;;;;;;49.17;27.70;;;;;;;;;;4989952;28;20197;-71
2021/11/16 06:17:29;;;;;;;42.10;24.80;;;;;;;;;;4986057;28;20208;-71
2021/11/16 06:19:56;;;;;;;42.43;25.50;;;;;;;;;;4987931;28;21198;-71
2021/11/16 06:22:21;;;;;;;46.03;26.00;;;;;;;;;;5000148;28;20329;-71
2021/11/16 06:24:47;;;;;;;48.83;27.13;;;;;;;;;;4992805;28;21014;-70
2021/11/16 06:27:12;;;;;;;48.50;27.57;;;;;;;;;;4988529;28;20271;-71
2021/11/16 06:29:37;;;;;;;44.90;25.60;;;;;;;;;;4983113;28;20197;-71
2021/11/16 06:32:04;;;;;;;46.10;27.57;;;;;;;;;;4991210;28;20199;-71
2021/11/16 06:34:29;;;;;;;51.47;26.80;;;;;;;;;;4985786;28;20293;-71
2021/11/16 06:36:55;;;;;;;44.33;26.80;;;;;;;;;;4974916;28;20432;-71
2021/11/16 06:39:21;;;;;;;53.03;28.10;;;;;;;;;;4991517;28;20221;-71
2021/11/16 06:41:47;;;;;;;50.17;29.03;;;;;;;;;;4988793;28;20258;-71
2021/11/16 06:44:13;;;;;;;48.63;28.67;;;;;;;;;;4989001;28;20522;-70
2021/11/16 06:46:39;;;;;;;47.90;28.70;;;;;;;;;;4987264;28;20555;-71
2021/11/16 06:49:06;;;;;;;48.47;29.07;;;;;;;;;;4988611;28;20558;-71
2021/11/16 06:51:37;;;;;;;46.70;26.80;;;;;;;;;;4986490;28;20173;-71
2021/11/16 06:54:03;;;;;;;44.80;27.20;;;;;;;;;;4989591;28;20452;-71
2021/11/16 06:56:28;;;;;;;47.50;28.90;;;;;;;;;;4989039;28;20441;-71
2021/11/16 06:58:54;;;;;;;46.13;27.83;;;;;;;;;;4990508;28;20802;-71
2021/11/16 07:01:19;;;;;;;46.17;27.07;;;;;;;;;;4984434;28;20185;-70
2021/11/16 07:03:51;;;;;;;53.13;29.40;;;;;;;;;;4990870;28;20718;-71
2021/11/16 07:06:17;;;;;;;46.13;27.40;;;;;;;;;;4998747;28;20227;-71
2021/11/16 07:08:43;;;;;;;44.27;26.57;;;;;;;;;;4998299;28;20893;-71
2021/11/16 07:11:17;;;;;;;46.50;27.80;;;;;;;;;;4999242;28;20550;-71
2021/11/16 07:13:57;;;;;;;46.90;27.80;;;;;;;;;;4994897;28;20475;-71
2021/11/16 07:16:23;;;;;;;52.23;28.90;;;;;;;;;;4996083;28;20471;-71
2021/11/16 07:18:50;;;;;;;47.80;27.60;;;;;;;;;;4991431;28;20523;-71
2021/11/16 07:21:16;;;;;;;48.20;27.03;;;;;;;;;;4993949;28;20436;-71
2021/11/16 07:23:41;;;;;;;48.13;28.20;;;;;;;;;;4995256;28;20431;-71
2021/11/16 07:26:14;;;;;;;43.33;25.87;;;;;;;;;;4989415;28;20181;-71
2021/11/16 07:28:49;;;;;;;43.17;24.97;;;;;;;;;;4996044;28;20197;-70
2021/11/16 07:31:18;;;;;;;47.43;26.37;;;;;;;;;;4990142;28;20567;-71
2021/11/16 07:33:44;;;;;;;45.10;27.00;;;;;;;;;;4991385;28;21992;-71
2021/11/16 07:36:09;;;;;;;44.83;26.90;;;;;;;;;;4992088;28;20454;-71
2021/11/16 07:38:34;;;;;;;44.60;26.37;;;;;;;;;;4994591;28;20213;-71
2021/11/16 07:41:00;;;;;;;44.90;26.30;;;;;;;;;;4987881;28;20184;-71
2021/11/16 07:43:26;;;;;;;47.50;26.10;;;;;;;;;;4996100;28;20185;-71
2021/11/16 07:45:53;;;;;;;46.50;27.57;;;;;;;;;;4996781;28;20188;-71
2021/11/16 07:48:19;;;;;;;44.93;26.87;;;;;;;;;;4991330;28;20448;-71
2021/11/16 07:50:47;;;;;;;47.47;25.67;;;;;;;;;;4985273;28;20505;-71
2021/11/16 07:53:15;;;;;;;49.70;27.40;;;;;;;;;;4993405;28;20468;-71
2021/11/16 07:55:41;;;;;;;48.00;27.23;;;;;;;;;;4993738;28;20579;-70
2021/11/16 07:58:08;;;;;;;41.93;25.70;;;;;;;;;;4995118;28;20531;-71
2021/11/16 08:00:34;;;;;;;48.07;26.33;;;;;;;;;;4992264;28;20501;-71
2021/11/16 08:03:07;;;;;;;50.50;28.13;;;;;;;;;;4996969;28;20432;-71
2021/11/16 08:06:37;;;;;;;46.37;26.57;;;;;;;;;;5001787;28;20431;-70
2021/11/16 08:11:24;;;;;;;46.50;27.07;;;;;;;;;;4993677;28;20447;-70
2021/11/16 08:13:51;;;;;;;47.33;26.27;;;;;;;;;;4993574;28;20474;-71
2021/11/16 08:16:16;;;;;;;46.50;27.23;;;;;;;;;;4980783;28;20498;-71
2021/11/16 08:18:43;;;;;;;45.10;26.30;;;;;;;;;;4990249;28;20490;-71
2021/11/16 08:21:09;;;;;;;51.37;28.73;;;;;;;;;;4994027;28;25076;-71
2021/11/16 08:23:34;;;;;;;47.17;27.40;;;;;;;;;;4996612;28;25106;-70
2021/11/16 08:25:59;;;;;;;47.50;26.40;;;;;;;;;;4997870;28;25076;-70
2021/11/16 08:28:25;;;;;;;49.23;28.63;;;;;;;;;;4990163;28;25050;-71
2021/11/16 08:30:52;;;;;;;45.63;25.60;;;;;;;;;;4984768;28;25098;-71
2021/11/16 08:33:18;;;;;;;46.43;27.23;;;;;;;;;;4991662;28;25109;-71
2021/11/16 08:35:44;;;;;;;49.13;27.10;;;;;;;;;;4986435;28;25123;-70
2021/11/16 08:38:12;;;;;;;47.37;27.33;;;;;;;;;;4988274;28;25059;-71
2021/11/16 08:40:39;;;;;;;44.83;25.80;;;;;;;;;;4986583;28;20450;-71
2021/11/16 08:43:13;;;;;;;45.00;27.20;;;;;;;;;;4987489;28;20239;-70
2021/11/16 08:45:43;;;;;;;41.15;24.00;;;;;;;;;;4986203;28;20202;-71
2021/11/16 08:48:11;;;;;;;47.00;26.65;;;;;;;;;;4980575;28;20464;-71
2021/11/16 08:50:40;;;;;;;42.95;26.30;;;;;;;;;;4987272;28;20445;-71
2021/11/16 08:53:08;;;;;;;45.07;26.00;;;;;;;;;;4985169;28;20339;-71
2021/11/16 08:55:33;;;;;;;47.47;26.70;;;;;;;;;;4990010;28;20569;-71
2021/11/16 08:58:00;;;;;;;43.60;25.80;;;;;;;;;;4986056;28;22344;-71
2021/11/16 09:00:26;;;;;;;45.50;25.30;;;;;;;;;;4980778;28;20193;-71
2021/11/16 09:03:02;;;;;;;45.33;24.40;;;;;;;;;;4992882;28;25118;-71
2021/11/16 09:05:30;;;;;;;44.20;24.43;;;;;;;;;;4988548;28;25108;-71
2021/11/16 09:07:57;;;;;;;42.90;24.33;;;;;;;;;;4996255;28;25116;-71
2021/11/16 09:10:31;;;;;;;39.97;23.43;;;;;;;;;;4988098;28;20466;-71
2021/11/16 09:12:56;;;;;;;40.40;23.90;;;;;;;;;;4992779;28;25108;-70
2021/11/16 09:15:32;;;;;;;41.83;23.80;;;;;;;;;;4989488;28;20467;-70
2021/11/16 09:18:11;;;;;;;43.83;23.47;;;;;;;;;;4984842;28;25064;-70
2021/11/16 09:20:37;;;;;;;39.00;21.57;;;;;;;;;;4979026;28;25130;-71
2021/11/16 09:23:03;;;;;;;36.43;22.63;;;;;;;;;;4985624;28;20467;-71
2021/11/16 09:25:34;;;;;;;39.23;22.50;;;;;;;;;;4982899;28;20447;-71
2021/11/16 09:28:12;;;;;;;38.87;21.87;;;;;;;;;;4983965;28;20212;-69
2021/11/16 09:30:42;;;;;;;41.87;23.40;;;;;;;;;;4988958;28;20434;-71
2021/11/16 09:33:11;;;;;;;42.90;23.80;;;;;;;;;;4992015;28;25118;-70
2021/11/16 09:35:51;;;;;;;41.70;23.77;;;;;;;;;;4990407;28;25123;-69
2021/11/16 09:38:32;;;;;;;39.47;21.73;;;;;;;;;;4986004;28;25101;-70
2021/11/16 09:40:58;;;;;;;40.37;23.77;;;;;;;;;;4983002;28;20436;-70
2021/11/16 09:43:25;;;;;;;42.43;23.30;;;;;;;;;;4984326;28;25110;-70
2021/11/16 09:45:50;;;;;;;41.10;23.97;;;;;;;;;;4986656;28;20197;-70
2021/11/16 09:48:23;;;;;;;35.90;22.17;;;;;;;;;;4989184;28;25171;-69
2021/11/16 09:50:48;;;;;;;39.17;23.13;;;;;;;;;;4986628;28;25075;-70
2021/11/16 09:53:14;;;;;;;35.70;21.70;;;;;;;;;;4991436;28;25121;-70
2021/11/16 09:55:40;;;;;;;38.80;22.40;;;;;;;;;;4984904;28;25095;-70
2021/11/16 09:58:07;;;;;;;37.33;22.13;;;;;;;;;;4994494;28;25156;-70
2021/11/16 10:00:33;;;;;;;38.37;21.70;;;;;;;;;;4988360;28;25071;-70
2021/11/16 10:02:59;;;;;;;40.50;22.90;;;;;;;;;;4994142;28;25140;-70
2021/11/16 10:05:26;;;;;;;34.13;20.30;;;;;;;;;;4993682;28;20576;-70
2021/11/16 10:07:53;;;;;;;40.00;21.30;;;;;;;;;;4989466;28;25138;-70
2021/11/16 10:10:20;;;;;;;38.00;20.87;;;;;;;;;;4985939;28;20450;-70
2021/11/16 10:12:47;;;;;;;35.63;21.27;;;;;;;;;;4989843;28;25107;-70
2021/11/16 10:15:14;;;;;;;38.83;20.90;;;;;;;;;;4987505;28;20460;-70
2021/11/16 10:17:40;;;;;;;30.93;19.50;;;;;;;;;;4988474;28;20455;-70
2021/11/16 10:20:07;;;;;;;30.47;18.50;;;;;;;;;;4989084;28;25124;-69
2021/11/16 10:22:32;;;;;;;41.43;21.63;;;;;;;;;;4989847;28;25135;-70
2021/11/16 10:25:11;;;;;;;34.93;19.47;;;;;;;;;;4987691;28;25131;-70
2021/11/16 10:27:37;;;;;;;36.10;21.00;;;;;;;;;;4992899;28;20284;-71
2021/11/16 10:30:05;;;;;;;39.30;23.63;;;;;;;;;;4986478;28;20449;-70
2021/11/16 10:32:30;;;;;;;40.00;23.27;;;;;;;;;;4990365;28;20802;-70
2021/11/16 10:35:05;;;;;;;38.60;23.50;;;;;;;;;;4992015;28;20462;-69
2021/11/16 10:37:42;;;;;;;39.80;23.27;;;;;;;;;;4991732;28;20205;-70
2021/11/16 10:40:11;;;;;;;34.93;20.90;;;;;;;;;;4987950;28;22092;-71
2021/11/16 10:42:41;;;;;;;36.60;21.37;;;;;;;;;;5002595;28;20465;-70
2021/11/16 10:45:12;;;;;;;35.93;21.37;;;;;;;;;;4980302;28;20489;-69
2021/11/16 10:47:37;;;;;;;37.43;21.53;;;;;;;;;;4982611;28;20462;-70
2021/11/16 10:50:10;;;;;;;35.80;22.40;;;;;;;;;;4988701;28;20436;-70
2021/11/16 10:52:36;;;;;;;39.23;21.80;;;;;;;;;;4984279;28;20273;-70
2021/11/16 10:55:03;;;;;;;37.43;21.83;;;;;;;;;;4981184;28;20586;-70
2021/11/16 10:57:48;;;;;;;36.47;21.53;;;;;;;;;;4984578;28;20982;-70
2021/11/16 11:00:14;;;;;;;37.93;23.00;;;;;;;;;;4980076;28;20514;-70
2021/11/16 11:02:39;;;;;;;39.80;22.43;;;;;;;;;;4988466;28;20437;-70
2021/11/16 11:05:05;;;;;;;37.30;22.87;;;;;;;;;;4985515;28;20193;-70
2021/11/16 11:07:35;;;;;;;39.77;24.20;;;;;;;;;;4987147;28;20544;-70
2021/11/16 11:10:01;;;;;;;43.63;24.07;;;;;;;;;;4986679;28;20193;-70
2021/11/16 11:12:29;;;;;;;41.17;24.77;;;;;;;;;;4986507;28;20447;-70
2021/11/16 11:14:55;;;;;;;40.87;24.80;;;;;;;;;;4987015;28;20209;-70
2021/11/16 11:17:30;;;;;;;39.83;25.23;;;;;;;;;;4991136;28;21424;-70
2021/11/16 11:20:05;;;;;;;40.83;23.63;;;;;;;;;;4984972;28;20431;-70
2021/11/16 11:22:33;;;;;;;42.90;24.63;;;;;;;;;;4982268;28;20434;-69
2021/11/16 11:25:07;;;;;;;37.53;23.50;;;;;;;;;;4985138;28;20443;-70
2021/11/16 11:28:29;;;;;;;41.27;24.00;;;;;;;;;;4984035;28;22023;-70
2021/11/16 11:30:21;;;;;;;44.03;24.70;;;;;;;;;;4981717;28;20441;-70
2021/11/16 11:32:49;;;;;;;41.10;23.87;;;;;;;;;;4985348;28;20440;-69
2021/11/16 11:35:18;;;;;;;43.70;26.03;;;;;;;;;;4986785;28;20688;-70
2021/11/16 11:37:46;;;;;;;41.83;24.30;;;;;;;;;;4985701;28;20596;-70
2021/11/16 11:40:13;;;;;;;45.07;24.70;;;;;;;;;;4987992;28;20527;-69
2021/11/16 11:42:39;;;;;;;49.83;26.50;;;;;;;;;;4984920;28;20994;-69
2021/11/16 11:45:20;;;;;;;42.70;26.33;;;;;;;;;;4988721;28;20441;-69
2021/11/16 11:47:46;;;;;;;45.90;26.03;;;;;;;;;;4990080;28;20476;-69
2021/11/16 11:50:27;;;;;;;49.07;25.53;;;;;;;;;;4984296;28;20694;-70
2021/11/16 11:52:52;;;;;;;41.00;23.73;;;;;;;;;;4993552;28;20435;-69
2021/11/16 11:55:18;;;;;;;47.27;26.80;;;;;;;;;;4994312;28;20549;-70
2021/11/16 11:57:43;;;;;;;44.63;26.10;;;;;;;;;;4995679;28;20249;-70
2021/11/16 12:00:10;;;;;;;46.40;25.10;;;;;;;;;;4990635;28;20659;-70
2021/11/16 12:02:35;;;;;;;46.47;25.17;;;;;;;;;;4997600;28;21141;-70
2021/11/16 12:05:01;;;;;;;43.83;25.70;;;;;;;;;;4994551;28;20495;-70
2021/11/16 12:07:29;;;;;;;42.23;24.57;;;;;;;;;;4994169;28;20432;-69
2021/11/16 12:09:55;;;;;;;38.10;25.67;;;;;;;;;;4988246;28;20236;-69
2021/11/16 12:12:21;;;;;;;40.33;25.43;;;;;;;;;;4998727;28;20472;-69
2021/11/16 12:15:06;;;;;;;41.27;25.73;;;;;;;;;;4989295;28;20539;-70
2021/11/16 12:17:34;;;;;;;48.67;26.97;;;;;;;;;;4980554;28;20216;-70
2021/11/16 12:20:00;;;;;;;48.17;27.20;;;;;;;;;;4992482;28;20462;-70
2021/11/16 12:22:27;;;;;;;46.67;26.33;;;;;;;;;;4990439;28;20439;-70
2021/11/16 12:25:00;;;;;;;43.37;26.00;;;;;;;;;;4989586;28;20236;-70
2021/11/16 12:27:30;;;;;;;44.27;25.00;;;;;;;;;;4989417;28;20470;-70
2021/11/16 12:29:56;;;;;;;43.43;25.33;;;;;;;;;;4984480;28;20531;-70
2021/11/16 12:32:22;;;;;;;42.30;27.17;;;;;;;;;;4985387;28;20442;-70
2021/11/16 12:34:50;;;;;;;42.60;25.80;;;;;;;;;;4998646;28;20235;-70
2021/11/16 12:37:33;;;;;;;45.10;27.20;;;;;;;;;;4990886;28;20454;-70
2021/11/16 12:40:00;;;;;;;43.03;24.57;;;;;;;;;;4990038;28;20448;-70
2021/11/16 12:42:25;;;;;;;41.87;26.13;;;;;;;;;;4987020;28;20447;-70
2021/11/16 12:44:57;;;;;;;40.97;24.67;;;;;;;;;;4982066;28;20447;-70
2021/11/16 12:47:24;;;;;;;41.90;24.47;;;;;;;;;;4981478;28;20265;-70
2021/11/16 12:49:50;;;;;;;39.80;24.33;;;;;;;;;;4984126;28;20446;-70
2021/11/16 12:52:17;;;;;;;44.63;25.57;;;;;;;;;;4989579;28;20814;-71
2021/11/16 12:54:43;;;;;;;45.17;24.47;;;;;;;;;;4991421;28;20902;-70
2021/11/16 12:57:11;;;;;;;41.17;24.23;;;;;;;;;;4987726;28;26452;-70
2021/11/16 12:59:42;;;;;;;39.67;23.40;;;;;;;;;;4993031;28;20425;-70
2021/11/16 13:02:24;;;;;;;38.90;21.50;;;;;;;;;;4994876;28;20429;-72
2021/11/16 13:04:51;;;;;;;39.00;22.77;;;;;;;;;;5005603;28;20429;-71
2021/11/16 13:07:21;;;;;;;38.10;22.40;;;;;;;;;;4988864;28;20453;-71
2021/11/16 13:09:48;;;;;;;33.17;22.33;;;;;;;;;;4990298;28;21055;-70
2021/11/16 13:12:32;;;;;;;40.50;23.57;;;;;;;;;;4987619;28;20494;-70
2021/11/16 13:14:57;;;;;;;42.97;24.47;;;;;;;;;;4988003;28;20475;-71
2021/11/16 13:17:55;;;;;;;40.23;22.93;;;;;;;;;;4983163;28;20457;-71
2021/11/16 13:20:25;;;;;;;39.47;23.30;;;;;;;;;;4985816;28;20201;-70
2021/11/16 13:22:55;;;;;;;49.43;27.00;;;;;;;;;;4989350;28;20467;-70
2021/11/16 13:25:39;;;;;;;43.40;23.60;;;;;;;;;;4988038;28;21265;-71
2021/11/16 13:28:06;;;;;;;36.67;24.90;;;;;;;;;;4984996;28;20459;-70
2021/11/16 13:30:31;;;;;;;43.40;27.17;;;;;;;;;;4985952;28;20444;-70
2021/11/16 13:32:56;;;;;;;39.87;24.97;;;;;;;;;;4989332;28;20433;-70
2021/11/16 13:35:22;;;;;;;38.13;23.20;;;;;;;;;;4986220;28;20242;-71
2021/11/16 13:37:51;;;;;;;39.53;22.67;;;;;;;;;;4990120;28;20201;-70
2021/11/16 13:40:20;;;;;;;40.57;23.77;;;;;;;;;;4991328;28;20194;-70
2021/11/16 13:42:47;;;;;;;41.50;25.40;;;;;;;;;;4990747;28;20447;-70
2021/11/16 13:45:14;;;;;;;37.30;22.93;;;;;;;;;;4991024;28;20437;-70
2021/11/16 13:47:42;;;;;;;37.37;21.67;;;;;;;;;;4991217;28;20499;-70
2021/11/16 13:50:09;;;;;;;34.47;20.83;;;;;;;;;;4989505;28;20893;-70
2021/11/16 13:52:37;;;;;;;34.37;20.20;;;;;;;;;;4990359;28;20424;-70
2021/11/16 13:55:06;;;;;;;31.00;18.37;;;;;;;;;;4986229;28;20547;-70
2021/11/16 13:57:34;;;;;;;35.87;18.70;;;;;;;;;;4992242;28;20444;-70
2021/11/16 14:00:15;;;;;;;31.03;17.53;;;;;;;;;;4987840;28;20440;-70
2021/11/16 14:02:40;;;;;;;31.77;18.13;;;;;;;;;;4989201;28;21377;-70
2021/11/16 14:05:07;;;;;;;30.30;17.40;;;;;;;;;;4989927;28;20855;-69
2021/11/16 14:07:33;;;;;;;26.90;15.77;;;;;;;;;;4997438;28;20611;-70
2021/11/16 14:10:06;;;;;;;32.10;17.57;;;;;;;;;;4987175;28;20444;-70
2021/11/16 14:12:32;;;;;;;25.47;16.60;;;;;;;;;;4992077;28;20231;-70
2021/11/16 14:15:01;;;;;;;28.07;17.27;;;;;;;;;;4994361;28;20558;-69
2021/11/16 14:17:26;;;;;;;28.50;15.73;;;;;;;;;;4995786;28;20225;-70
2021/11/16 14:19:53;;;;;;;25.67;15.07;;;;;;;;;;4995082;28;20475;-70
2021/11/16 14:22:27;;;;;;;29.23;16.90;;;;;;;;;;4996329;28;20181;-69
2021/11/16 14:24:52;;;;;;;25.90;15.17;;;;;;;;;;4995783;28;20940;-70
2021/11/16 14:27:19;;;;;;;25.40;14.43;;;;;;;;;;4987131;28;20460;-70
2021/11/16 14:29:44;;;;;;;24.17;14.60;;;;;;;;;;4991942;28;21348;-70
2021/11/16 14:32:17;;;;;;;28.30;16.87;;;;;;;;;;4993572;28;20436;-70
2021/11/16 14:34:43;;;;;;;28.03;15.40;;;;;;;;;;4987054;28;20204;-70
2021/11/16 14:37:08;;;;;;;26.63;15.87;;;;;;;;;;4992986;28;20452;-70
2021/11/16 14:39:36;;;;;;;28.60;16.00;;;;;;;;;;4990205;28;20216;-70
2021/11/16 14:42:07;;;;;;;27.20;16.23;;;;;;;;;;4991072;28;20181;-70
2021/11/16 14:44:35;;;;;;;30.40;15.73;;;;;;;;;;4991428;28;20433;-70
2021/11/16 14:47:01;;;;;;;26.70;15.37;;;;;;;;;;4988419;28;22622;-70
2021/11/16 14:49:38;;;;;;;24.23;13.27;;;;;;;;;;4993519;28;20448;-70
2021/11/16 14:52:11;;;;;;;26.47;14.87;;;;;;;;;;4991594;28;20427;-70
2021/11/16 14:54:37;;;;;;;28.50;13.93;;;;;;;;;;4992628;28;21054;-70
2021/11/16 14:57:02;;;;;;;30.00;16.73;;;;;;;;;;4990171;28;20432;-70
2021/11/16 14:59:31;;;;;;;26.60;14.77;;;;;;;;;;4981904;28;20640;-70